Terminal Aerodrome Forecast
Issued by NWS

Current Version | Previous Version | Text Only | Print | Product List | Glossary On
Versions: 1 2 3 4 5 6 7 8 9 10 11 12 13 14 15 16 17 18 19 20 21 22 23 24 25 26 27 28 29
624
FTUS46 KMTR 261810 AAA
TAFMRY
TAF AMD
KMRY 261810Z 2618/2718 32004KT 3SM HZ FU FEW015 OVC050
     FM261900 29008KT 4SM HZ FU SCT015 OVC050
     FM270300 24004KT 4SM HZ FU BKN004 OVC050
     FM270700 VRB03KT 3SM BR FU OVC003
     FM270900 VRB02KT 1SM BR FU OVC001
     FM271100 00000KT 1/2SM FG FU VV002
     FM271500 VRB03KT 3SM HZ FU OVC003=

USA.gov is the U.S. government's official web portal to all federal, state and local government web resources and services.